KWHP/WHP METAR and TAF weather

Enter ICAO airport designator
Station Type Date Time Source
KWHP METAR 2022/12/04 02:50 UTC NOAA

KWHP 040250Z 00000KT 10SM OVC050 14/13 A3011


Station Type Date Time Source
KWHP Decoded METAR 2022/12/04 02:50 UTC NOAA

Los Angeles, Whiteman Airport, CA, United States (KWHP) 34-15N 118-24W
Dec 03, 2022 - 09:50 PM EST / 2022.12.04 0250 UTC
Wind: Calm:0
Visibility: 10 mile(s):0
Sky conditions: overcast
Temperature: 57 F (14 C)
Dew Point: 55 F (13 C)
Relative Humidity: 93%
Pressure (altimeter): 30.11 in. Hg (1019 hPa)
ob: KWHP 040250Z 00000KT 10SM OVC050 14/13 A3011
cycle: 3

Station Type Date Time Source
KWHP TAF UTC NOAA

Error!

Example: see airport list